02:14
Airports
History
Links
Donate
Help keep this website running!
PayPal
Bitcoin
This page is community maintained. The information is intended for PC simulator navigation or reference.
Always use approved charts for navigation.
VILK
LUCKNOW
LUCKNOW (VILK)
Lucknow, Uttar Pradesh, India (226008)
(C)
Lat/Lng:26° 45' 38.13" N / 80° 53' 21.63" E
26.760593 / 80.889341
Elevation:410'ft / 125mMSL
ID / ICAO:VILK
Runways:1
Longest:09-27
Asphalt 2,736m / 8,976ft
Controlled:Yes
METAR02:00 GMT 2017-09-20
Altimeter: 29.65
Visibility: 2.5 statute miles
Wind: 0 knots (from 000°)
Temp: 30°c / 86°f
Humidity: 84.0%

METAR: VILK 200200Z 00000KT 4000 BR FEW020 BKN100 30/27 Q1004 NOSIG

(Powered by phpweather)
Airport Radio Frequencies
ATIS: 126.8
Tower: 118.6, 119.7
Approach: 119.6
Nearby VORs <50NM
Nearby NDBs
Runway 09 / 27
Dimensions:2735.9 x 45.1m 8976' x 148'ft
Surface:Asphalt
Edge Lights:High intensity
Runway 09 [A]Runway 27 [B]
Heading:089°TH 269°TH
Lat:
Lng:
26° 45' 37.48"N
80° 52' 31.94"E
26° 45' 38.79"N
80° 54' 11.31"E
ALS:SALSMALS
User Notes and Comments
26° 45' 38.13" N / 80° 53' 21.63" E
Distance To
Airport ID:
Nearby Airports
(U) BAKSHI KA TALAB 15.7 NM
VIBL N
(C) KANPUR CHAKERI 38.3 NM
VICX ( WX ) SW 230°
(C) KANPUR 39.2 NM
VIKA SW 235°
(U) KALYANPUR 43.8 NM
VI75 WSW 247°
(C) FURSATGANJ 46.6 NM
VIRB SE 139°
(C) NEPALGUNJ 104.3 NM
VNNG NNE 27°
(C) ALLAHABAD 105.4 NM
VIAL ( WX ) SSE 150°
VFR Chart
Flight Planning at SkyVector.com